createdAt,value
2022-09-15T00:01:27.909Z,1.13
2022-09-15T00:03:55.730Z,1.20
2022-09-15T00:06:23.669Z,1.20
2022-09-15T00:08:51.507Z,1.23
2022-09-15T00:11:22.948Z,1.20
2022-09-15T00:13:52.355Z,1.57
2022-09-15T00:16:26.386Z,1.40
2022-09-15T00:18:54.702Z,1.50
2022-09-15T00:21:24.900Z,1.30
2022-09-15T00:23:53.048Z,1.47
2022-09-15T00:26:24.503Z,1.40
2022-09-15T00:28:55.677Z,1.37
2022-09-15T00:31:26.183Z,1.33
2022-09-15T00:33:56.057Z,1.33
2022-09-15T00:36:27.692Z,1.50
2022-09-15T00:38:56.091Z,1.30
2022-09-15T00:41:26.226Z,2.20
2022-09-15T00:43:56.950Z,1.63
2022-09-15T00:46:30.959Z,1.20
2022-09-15T00:49:04.850Z,1.40
2022-09-15T00:51:38.200Z,3.30
2022-09-15T00:54:09.387Z,1.10
2022-09-15T00:56:41.779Z,1.30
2022-09-15T00:59:17.900Z,1.33
2022-09-15T01:01:48.116Z,1.33
2022-09-15T01:04:17.493Z,1.77
2022-09-15T01:06:49.011Z,1.10
2022-09-15T01:09:20.417Z,1.43
2022-09-15T01:11:50.145Z,1.43
2022-09-15T01:14:18.267Z,1.60
2022-09-15T01:16:54.564Z,1.90
2022-09-15T01:20:04.543Z,1.70
2022-09-15T01:22:39.599Z,1.87
2022-09-15T01:25:11.260Z,1.80
2022-09-15T01:28:15.202Z,1.67
2022-09-15T01:30:52.035Z,1.53
2022-09-15T01:33:32.164Z,2.00
2022-09-15T01:36:11.578Z,2.00
2022-09-15T01:38:51.539Z,1.63
2022-09-15T01:41:25.899Z,1.90
2022-09-15T01:43:59.585Z,1.40
2022-09-15T01:46:32.444Z,1.70
2022-09-15T01:49:02.985Z,1.57
2022-09-15T01:51:33.240Z,1.50
2022-09-15T01:54:04.039Z,2.20
2022-09-15T01:56:32.069Z,1.90
2022-09-15T01:58:59.945Z,2.00
2022-09-15T02:01:34.852Z,2.23
2022-09-15T02:04:11.991Z,2.03
2022-09-15T02:06:47.281Z,2.30
2022-09-15T02:09:21.895Z,1.90
2022-09-15T02:11:58.957Z,1.93
2022-09-15T02:14:43.111Z,2.40
2022-09-15T02:17:15.929Z,2.30
2022-09-15T02:19:50.458Z,2.03
2022-09-15T02:22:23.415Z,1.83
2022-09-15T02:24:57.020Z,1.67
2022-09-15T02:27:28.157Z,2.10
2022-09-15T02:30:00.905Z,1.87
2022-09-15T02:32:31.635Z,1.43
2022-09-15T02:35:06.638Z,1.60
2022-09-15T02:37:37.584Z,1.53
2022-09-15T02:40:07.023Z,1.73
2022-09-15T02:42:35.483Z,1.80
2022-09-15T02:45:04.777Z,2.00
2022-09-15T02:47:34.191Z,1.80
2022-09-15T02:50:02.343Z,1.93
2022-09-15T02:52:30.165Z,2.47
2022-09-15T02:54:58.176Z,1.80
2022-09-15T02:57:26.226Z,2.50
2022-09-15T03:00:11.430Z,2.20
2022-09-15T03:02:41.323Z,2.10
2022-09-15T03:05:10.619Z,2.70
2022-09-15T03:07:39.046Z,2.30
2022-09-15T03:10:08.888Z,2.13
2022-09-15T03:12:39.454Z,2.40
2022-09-15T03:15:10.162Z,2.43
2022-09-15T03:17:42.456Z,2.90
2022-09-15T03:20:12.679Z,3.17
2022-09-15T03:22:40.870Z,3.13
2022-09-15T03:25:10.496Z,3.63
2022-09-15T03:27:38.619Z,4.10
2022-09-15T03:30:08.339Z,4.80
2022-09-15T03:32:36.608Z,3.80
2022-09-15T03:35:07.237Z,4.00
2022-09-15T03:37:37.311Z,4.00
2022-09-15T03:40:06.144Z,4.10
2022-09-15T03:42:34.125Z,3.77
2022-09-15T03:45:01.999Z,4.23
2022-09-15T03:47:29.941Z,5.23
2022-09-15T03:49:58.130Z,5.17
2022-09-15T03:52:27.454Z,5.70
2022-09-15T03:54:55.618Z,6.00
2022-09-15T03:57:26.496Z,5.50
2022-09-15T03:59:54.390Z,5.27
2022-09-15T04:02:22.387Z,5.30
2022-09-15T04:04:51.402Z,4.67
2022-09-15T04:07:19.231Z,4.50
2022-09-15T04:09:48.584Z,5.33
2022-09-15T04:12:16.681Z,4.87
2022-09-15T04:14:44.899Z,5.60
2022-09-15T04:17:12.698Z,5.20
2022-09-15T04:19:40.623Z,5.20
2022-09-15T04:22:08.493Z,4.83
2022-09-15T04:24:36.668Z,5.20
2022-09-15T04:27:06.069Z,4.87
2022-09-15T04:29:34.144Z,4.80
2022-09-15T04:32:02.089Z,5.17
2022-09-15T04:34:30.049Z,4.87
2022-09-15T04:36:58.585Z,4.97
2022-09-15T04:39:26.580Z,4.90
2022-09-15T04:41:56.444Z,6.40
2022-09-15T04:44:27.820Z,5.00
2022-09-15T04:46:55.692Z,5.67
2022-09-15T04:49:24.441Z,5.70
2022-09-15T04:51:53.071Z,5.50
2022-09-15T04:54:21.192Z,5.70
2022-09-15T04:56:51.372Z,5.87
2022-09-15T04:59:20.076Z,6.30
2022-09-15T05:01:49.244Z,5.73
2022-09-15T05:04:17.154Z,5.20
2022-09-15T05:06:45.050Z,5.77
2022-09-15T05:09:15.973Z,5.57
2022-09-15T05:11:44.057Z,4.83
2022-09-15T05:14:12.621Z,4.70
2022-09-15T05:16:41.066Z,4.07
2022-09-15T05:19:13.158Z,4.77
2022-09-15T05:21:41.100Z,4.47
2022-09-15T05:24:08.944Z,3.70
2022-09-15T05:26:37.296Z,5.70
2022-09-15T05:29:32.631Z,4.30
2022-09-15T05:32:00.551Z,4.47
2022-09-15T05:34:32.440Z,4.37
2022-09-15T05:37:02.407Z,4.43
2022-09-15T05:39:30.416Z,4.10
2022-09-15T05:41:58.272Z,4.20
2022-09-15T05:44:26.196Z,3.97
2022-09-15T05:46:54.004Z,3.63
2022-09-15T05:49:21.938Z,3.97
2022-09-15T05:51:51.177Z,4.07
2022-09-15T05:54:19.216Z,4.47
2022-09-15T05:56:46.984Z,4.30
2022-09-15T05:59:17.338Z,3.70
2022-09-15T06:01:45.392Z,4.20
2022-09-15T06:04:13.358Z,4.43
2022-09-15T06:06:41.380Z,3.77
2022-09-15T06:09:10.625Z,4.17
2022-09-15T06:11:38.525Z,4.10
2022-09-15T06:14:06.662Z,4.60
2022-09-15T06:16:36.597Z,4.33
2022-09-15T06:19:05.075Z,4.43
2022-09-15T06:21:34.193Z,3.80
2022-09-15T06:24:04.593Z,4.40
2022-09-15T06:26:34.698Z,4.37
2022-09-15T06:29:04.956Z,4.30
2022-09-15T06:31:34.521Z,4.33
2022-09-15T06:34:03.930Z,4.20
2022-09-15T06:36:34.088Z,4.17
2022-09-15T06:39:02.794Z,4.17
2022-09-15T06:41:47.148Z,3.83
2022-09-15T06:44:20.805Z,4.10
2022-09-15T06:46:51.495Z,3.70
2022-09-15T06:49:20.027Z,3.97
2022-09-15T06:51:47.852Z,3.70
2022-09-15T06:54:16.712Z,3.27
2022-09-15T06:56:45.504Z,3.30
2022-09-15T06:59:13.986Z,3.57
2022-09-15T07:01:45.253Z,3.23
2022-09-15T07:04:13.066Z,3.57
2022-09-15T07:06:42.078Z,2.93
2022-09-15T07:09:11.967Z,5.20
2022-09-15T07:11:39.841Z,3.80
2022-09-15T07:14:07.807Z,3.13
2022-09-15T07:16:35.756Z,3.60
2022-09-15T07:19:07.334Z,3.60
2022-09-15T07:21:37.439Z,3.27
2022-09-15T07:24:07.763Z,3.50
2022-09-15T07:26:36.295Z,3.40
2022-09-15T07:29:07.769Z,3.03
2022-09-15T07:31:37.740Z,3.50
2022-09-15T07:34:07.730Z,3.77
2022-09-15T07:36:35.814Z,3.77
2022-09-15T07:39:04.895Z,3.10
2022-09-15T07:41:33.460Z,3.77
2022-09-15T07:44:08.021Z,2.90
2022-09-15T07:46:36.378Z,3.30
2022-09-15T07:49:06.426Z,3.43
2022-09-15T07:51:35.674Z,3.40
2022-09-15T07:54:03.490Z,3.77
2022-09-15T07:56:33.925Z,3.37
2022-09-15T07:59:01.810Z,3.17
2022-09-15T08:01:29.888Z,3.90
2022-09-15T08:03:57.791Z,3.27
2022-09-15T08:06:27.482Z,3.27
2022-09-15T08:09:00.753Z,3.57
2022-09-15T08:11:29.835Z,3.60
2022-09-15T08:13:57.722Z,2.83
2022-09-15T08:16:25.738Z,3.23
2022-09-15T08:18:55.173Z,3.07
2022-09-15T08:21:23.987Z,3.37
2022-09-15T08:23:53.196Z,3.13
2022-09-15T08:26:22.823Z,3.10
2022-09-15T08:28:50.650Z,2.83
2022-09-15T08:31:19.170Z,3.20
2022-09-15T08:33:49.485Z,3.20
2022-09-15T08:36:18.007Z,2.67
2022-09-15T08:38:47.385Z,2.60
2022-09-15T08:41:19.724Z,2.50
2022-09-15T08:43:57.403Z,3.00
2022-09-15T08:46:30.701Z,2.47
2022-09-15T08:49:06.325Z,2.43
2022-09-15T08:51:41.912Z,2.30
2022-09-15T08:54:17.344Z,2.87
2022-09-15T08:56:45.816Z,2.07
2022-09-15T08:59:17.341Z,2.40
2022-09-15T09:02:05.766Z,2.47
2022-09-15T09:04:58.997Z,2.53
2022-09-15T09:07:45.822Z,2.23
2022-09-15T09:10:18.338Z,2.47
2022-09-15T09:13:02.606Z,2.50
2022-09-15T09:15:43.419Z,2.00
2022-09-15T09:18:34.350Z,3.20
2022-09-15T09:21:09.718Z,2.40
2022-09-15T09:23:47.006Z,1.80
2022-09-15T09:26:17.808Z,1.83
2022-09-15T09:28:51.018Z,1.83
2022-09-15T09:31:23.176Z,1.90
2022-09-15T09:33:56.870Z,1.60
2022-09-15T09:36:24.876Z,1.50
2022-09-15T09:38:52.803Z,1.30
2022-09-15T09:41:26.003Z,1.80
2022-09-15T09:43:56.871Z,1.70
2022-09-15T09:46:26.241Z,1.57
2022-09-15T09:48:57.320Z,1.40
2022-09-15T09:51:39.867Z,1.40
2022-09-15T09:54:16.433Z,1.93
2022-09-15T09:56:47.937Z,2.43
2022-09-15T09:59:41.900Z,1.80
2022-09-15T10:02:17.597Z,1.77
2022-09-15T10:04:47.327Z,1.80
2022-09-15T10:07:17.549Z,1.73
2022-09-15T10:09:54.775Z,1.43
2022-09-15T10:12:30.701Z,1.80
2022-09-15T10:15:02.247Z,1.37
2022-09-15T10:17:43.520Z,2.07
2022-09-15T10:20:32.641Z,1.50
2022-09-15T10:23:06.284Z,1.80
2022-09-15T10:25:58.653Z,1.87
2022-09-15T10:28:28.285Z,1.73
2022-09-15T10:31:02.208Z,1.70
2022-09-15T10:33:34.773Z,1.37
2022-09-15T10:36:07.225Z,1.70
2022-09-15T10:38:44.234Z,1.30
2022-09-15T10:41:21.668Z,1.50
2022-09-15T10:44:03.221Z,1.60
2022-09-15T10:46:42.621Z,1.67
2022-09-15T10:49:25.290Z,1.40
2022-09-15T10:52:03.854Z,1.27
2022-09-15T10:54:48.717Z,1.47
2022-09-15T10:57:32.157Z,1.30
2022-09-15T11:00:05.591Z,1.30
2022-09-15T11:02:59.668Z,1.50
2022-09-15T11:05:40.898Z,1.73
2022-09-15T11:08:33.191Z,1.40
2022-09-15T11:11:09.279Z,1.50
2022-09-15T11:13:47.384Z,1.60
2022-09-15T11:16:28.145Z,1.73
2022-09-15T11:19:09.205Z,1.60
2022-09-15T11:21:40.851Z,1.80
2022-09-15T11:24:27.170Z,2.00
2022-09-15T11:26:59.105Z,1.50
2022-09-15T11:29:32.179Z,1.57
2022-09-15T11:32:06.227Z,1.77
2022-09-15T11:34:39.150Z,1.83
2022-09-15T11:37:16.219Z,2.47
2022-09-15T11:39:51.167Z,3.00
2022-09-15T11:42:22.197Z,3.33
2022-09-15T11:44:50.700Z,3.90
2022-09-15T11:47:27.212Z,3.70
2022-09-15T11:50:01.455Z,4.57
2022-09-15T11:52:45.480Z,4.30
2022-09-15T11:55:24.321Z,4.67
2022-09-15T11:58:00.449Z,4.50
2022-09-15T12:00:28.412Z,4.80
2022-09-15T12:03:07.501Z,5.00
2022-09-15T12:05:40.329Z,4.40
2022-09-15T12:08:16.317Z,4.33
2022-09-15T12:10:49.396Z,3.80
2022-09-15T12:13:20.163Z,4.50
2022-09-15T12:15:52.392Z,3.83
2022-09-15T12:18:39.048Z,4.00
2022-09-15T12:21:16.209Z,4.23
2022-09-15T12:23:50.652Z,4.40
2022-09-15T12:26:20.826Z,4.20
2022-09-15T12:28:57.676Z,4.70
2022-09-15T12:31:32.126Z,3.70
2022-09-15T12:34:01.750Z,4.80
2022-09-15T12:36:42.692Z,3.80
2022-09-15T12:39:25.368Z,4.47
2022-09-15T12:41:55.539Z,4.80
2022-09-15T12:44:34.091Z,4.90
2022-09-15T12:47:04.075Z,3.90
2022-09-15T12:49:38.031Z,4.10
2022-09-15T12:52:08.273Z,4.50
2022-09-15T12:54:40.773Z,4.03
2022-09-15T12:57:20.049Z,3.77
2022-09-15T12:59:47.985Z,3.17
2022-09-15T13:02:43.706Z,3.50
2022-09-15T13:05:12.757Z,2.93
2022-09-15T13:07:58.709Z,3.40
2022-09-15T13:10:34.331Z,2.63
2022-09-15T13:13:24.228Z,3.10
2022-09-15T13:15:54.582Z,2.93
2022-09-15T13:18:24.609Z,3.23
2022-09-15T13:20:59.840Z,3.50
2022-09-15T13:23:29.840Z,3.03
2022-09-15T13:26:02.762Z,3.37
2022-09-15T13:28:30.895Z,3.60
2022-09-15T13:31:12.981Z,3.50
2022-09-15T13:40:12.902Z,3.80
2022-09-15T13:42:56.248Z,4.03
2022-09-15T13:45:41.477Z,3.30
2022-09-15T13:48:31.141Z,3.90
2022-09-15T13:51:02.126Z,3.23
2022-09-15T13:53:47.893Z,3.17
2022-09-15T13:56:23.244Z,3.20
2022-09-15T13:59:05.345Z,2.43
2022-09-15T14:01:38.772Z,2.83
2022-09-15T14:04:10.753Z,2.73
2022-09-15T14:06:42.614Z,2.17
2022-09-15T14:09:15.785Z,2.57
2022-09-15T14:11:44.834Z,3.20
2022-09-15T14:14:32.345Z,3.13
2022-09-15T14:17:02.607Z,3.67
2022-09-15T14:19:34.288Z,3.67
2022-09-15T14:22:03.503Z,3.80
2022-09-15T14:24:33.058Z,3.07
2022-09-15T14:27:10.190Z,3.50
2022-09-15T14:29:43.532Z,2.70
2022-09-15T14:32:15.747Z,3.50
2022-09-15T14:34:45.173Z,3.40
2022-09-15T14:37:18.977Z,3.30
2022-09-15T14:39:50.379Z,4.10
2022-09-15T14:42:22.961Z,3.47
2022-09-15T14:47:43.444Z,3.90
2022-09-15T14:50:15.629Z,3.17
2022-09-15T14:52:45.114Z,3.03
2022-09-15T14:55:16.686Z,3.47
2022-09-15T14:57:49.000Z,3.23
2022-09-15T15:00:23.415Z,2.80
2022-09-15T15:03:00.915Z,3.17
2022-09-15T15:05:34.507Z,3.70
2022-09-15T15:08:05.838Z,2.80
2022-09-15T15:10:36.736Z,3.10
2022-09-15T15:13:08.286Z,3.00
2022-09-15T15:15:38.570Z,2.90
2022-09-15T15:18:31.603Z,3.30
2022-09-15T15:21:00.061Z,4.53
2022-09-15T15:23:31.959Z,3.20
2022-09-15T15:26:33.824Z,3.40
2022-09-15T15:29:01.773Z,3.27
2022-09-15T15:31:31.352Z,3.23
2022-09-15T15:34:05.222Z,3.00
2022-09-15T15:36:35.601Z,2.80
2022-09-15T15:39:07.127Z,2.80
2022-09-15T15:41:37.235Z,2.60
2022-09-15T15:44:08.751Z,2.60
2022-09-15T15:46:49.774Z,2.83
2022-09-15T15:49:18.321Z,2.60
2022-09-15T15:51:46.122Z,2.70
2022-09-15T15:54:14.781Z,2.83
2022-09-15T15:56:42.721Z,3.17
2022-09-15T15:59:13.539Z,2.50
2022-09-15T16:01:41.679Z,2.97
2022-09-15T16:04:12.119Z,2.70
2022-09-15T16:06:40.465Z,2.57
2022-09-15T16:09:08.370Z,2.60
2022-09-15T16:11:36.258Z,2.90
2022-09-15T16:14:04.183Z,3.20
2022-09-15T16:16:33.620Z,2.60
2022-09-15T16:19:01.551Z,2.70
2022-09-15T16:21:37.240Z,2.93
2022-09-15T16:24:06.169Z,2.70
2022-09-15T16:26:35.555Z,2.50
2022-09-15T16:29:03.545Z,2.83
2022-09-15T16:31:31.971Z,2.60
2022-09-15T16:33:59.913Z,3.93
2022-09-15T16:36:27.925Z,3.77
2022-09-15T16:38:57.170Z,3.20
2022-09-15T16:41:25.693Z,3.10
2022-09-15T16:43:55.685Z,3.17
2022-09-15T16:46:23.720Z,3.30
2022-09-15T16:48:51.922Z,2.97
2022-09-15T16:51:31.386Z,2.53
2022-09-15T16:54:00.977Z,2.70
2022-09-15T16:56:29.358Z,2.90
2022-09-15T16:59:00.424Z,2.67
2022-09-15T17:01:29.121Z,3.00
2022-09-15T17:03:57.497Z,3.50
2022-09-15T17:06:25.276Z,2.70
2022-09-15T17:08:53.384Z,2.87
2022-09-15T17:11:23.798Z,2.40
2022-09-15T17:13:52.253Z,3.30
2022-09-15T17:16:20.498Z,3.10
2022-09-15T17:18:49.177Z,3.30
2022-09-15T17:21:19.793Z,3.47
2022-09-15T17:23:49.430Z,3.30
2022-09-15T17:26:20.642Z,3.33
2022-09-15T17:28:50.388Z,3.30
2022-09-15T17:31:21.126Z,3.40
2022-09-15T17:33:50.464Z,3.40
2022-09-15T17:36:18.598Z,3.40
2022-09-15T17:38:48.697Z,4.13
2022-09-15T17:41:17.994Z,3.80
2022-09-15T17:43:46.093Z,3.80
2022-09-15T17:46:15.346Z,3.60
2022-09-15T17:48:43.381Z,4.17
2022-09-15T17:51:17.924Z,4.20
2022-09-15T17:53:46.838Z,4.00
2022-09-15T17:56:14.857Z,3.73
2022-09-15T17:58:43.160Z,3.63
2022-09-15T18:01:15.644Z,3.57
2022-09-15T18:03:44.964Z,4.13
2022-09-15T18:06:13.683Z,3.63
2022-09-15T18:08:41.659Z,3.87
2022-09-15T18:11:15.093Z,4.00
2022-09-15T18:13:43.360Z,5.07
2022-09-15T18:16:13.793Z,3.43
2022-09-15T18:18:43.532Z,3.50
2022-09-15T18:21:23.427Z,3.07
2022-09-15T18:23:51.399Z,4.13
2022-09-15T18:26:23.856Z,2.80
2022-09-15T18:28:54.214Z,3.40
2022-09-15T18:31:22.311Z,3.33
2022-09-15T18:33:52.299Z,3.00
2022-09-15T18:36:20.573Z,3.50
2022-09-15T18:38:48.479Z,2.87
2022-09-15T18:41:16.341Z,2.67
2022-09-15T18:43:48.753Z,2.50
2022-09-15T18:46:17.097Z,2.80
2022-09-15T18:48:44.863Z,2.63
2022-09-15T18:51:23.830Z,3.50
2022-09-15T18:53:57.363Z,2.50
2022-09-15T18:56:25.127Z,2.63
2022-09-15T18:58:53.374Z,3.10
2022-09-15T19:01:21.446Z,3.10
2022-09-15T19:03:49.521Z,2.77
2022-09-15T19:06:18.642Z,3.40
2022-09-15T19:08:46.481Z,3.27
2022-09-15T19:11:14.414Z,3.33
2022-09-15T19:13:42.270Z,3.60
2022-09-15T19:16:10.404Z,2.77
2022-09-15T19:18:38.927Z,3.37
2022-09-15T19:21:08.061Z,3.30
2022-09-15T19:23:37.857Z,3.50
2022-09-15T19:26:07.054Z,3.60
2022-09-15T19:28:35.315Z,3.17
2022-09-15T19:31:03.177Z,3.13
2022-09-15T19:33:31.123Z,2.50
2022-09-15T19:36:17.285Z,2.80
2022-09-15T19:38:52.192Z,2.50
2022-09-15T19:41:22.969Z,2.50
2022-09-15T19:43:50.922Z,2.43
2022-09-15T19:46:21.352Z,2.63
2022-09-15T19:48:50.205Z,1.93
2022-09-15T19:51:19.263Z,2.33
2022-09-15T19:53:47.840Z,2.00
2022-09-15T19:56:19.702Z,2.23
2022-09-15T19:58:47.579Z,2.10
2022-09-15T20:01:15.561Z,2.23
2022-09-15T20:03:43.515Z,1.40
2022-09-15T20:06:11.381Z,1.67
2022-09-15T20:08:41.495Z,2.50
2022-09-15T20:11:10.592Z,3.27
2022-09-15T20:13:41.473Z,3.40
2022-09-15T20:16:09.563Z,3.17
2022-09-15T20:18:41.163Z,2.93
2022-09-15T20:21:12.358Z,2.50
2022-09-15T20:23:50.446Z,3.00
2022-09-15T20:26:19.223Z,3.87
2022-09-15T20:28:48.524Z,2.77
2022-09-15T20:31:19.148Z,2.60
2022-09-15T20:33:48.800Z,3.10
2022-09-15T20:36:18.557Z,3.10
2022-09-15T20:38:47.581Z,3.43
2022-09-15T20:41:19.692Z,3.67
2022-09-15T20:43:53.978Z,4.03
2022-09-15T20:46:23.551Z,3.10
2022-09-15T20:48:52.387Z,2.97
2022-09-15T20:51:22.630Z,2.47
2022-09-15T20:53:52.603Z,2.33
2022-09-15T20:56:25.239Z,2.00
2022-09-15T20:58:55.474Z,2.00
2022-09-15T21:01:24.895Z,2.37
2022-09-15T21:03:55.259Z,2.20
2022-09-15T21:06:24.876Z,2.30
2022-09-15T21:08:53.241Z,2.13
2022-09-15T21:11:23.163Z,2.30
2022-09-15T21:13:51.429Z,2.37
2022-09-15T21:16:25.198Z,1.87
2022-09-15T21:18:53.371Z,2.30
2022-09-15T21:21:23.178Z,1.90
2022-09-15T21:23:54.195Z,2.60
2022-09-15T21:26:23.437Z,1.97
2022-09-15T21:28:52.051Z,2.23
2022-09-15T21:31:21.584Z,1.93
2022-09-15T21:33:52.382Z,2.37
2022-09-15T21:36:22.392Z,1.57
2022-09-15T21:38:51.899Z,1.73
2022-09-15T21:41:21.974Z,2.20
2022-09-15T21:43:53.077Z,2.20
2022-09-15T21:46:22.275Z,2.23
2022-09-15T21:48:51.977Z,1.47
2022-09-15T21:51:24.536Z,2.20
2022-09-15T21:53:54.468Z,1.90
2022-09-15T21:56:23.262Z,1.60
2022-09-15T21:58:51.416Z,2.33
2022-09-15T22:01:21.112Z,1.77
2022-09-15T22:03:52.398Z,1.50
2022-09-15T22:06:21.383Z,1.63
2022-09-15T22:08:49.685Z,1.47
2022-09-15T22:11:17.501Z,1.30
2022-09-15T22:13:45.560Z,1.90
2022-09-15T22:16:17.714Z,1.70
2022-09-15T22:18:46.443Z,2.27
2022-09-15T22:21:17.587Z,1.83
2022-09-15T22:23:49.457Z,1.90
2022-09-15T22:26:20.362Z,1.93
2022-09-15T22:28:48.647Z,2.00
2022-09-15T22:31:19.138Z,2.20
2022-09-15T22:33:47.352Z,1.57
2022-09-15T22:36:18.414Z,1.80
2022-09-15T22:38:47.015Z,1.63
2022-09-15T22:41:17.477Z,1.70
2022-09-15T22:43:47.946Z,1.80
2022-09-15T22:46:16.431Z,2.23
2022-09-15T22:48:44.290Z,1.90
2022-09-15T22:51:12.981Z,1.80
2022-09-15T22:53:42.672Z,2.20
2022-09-15T22:56:14.513Z,2.20
2022-09-15T22:58:44.078Z,1.80
2022-09-15T23:01:13.836Z,2.03
2022-09-15T23:03:43.620Z,1.70
2022-09-15T23:06:11.687Z,1.80
2022-09-15T23:08:39.598Z,1.70
2022-09-15T23:11:10.565Z,1.70
2022-09-15T23:13:39.486Z,1.67
2022-09-15T23:16:08.832Z,2.23
2022-09-15T23:18:37.655Z,2.00
2022-09-15T23:21:09.172Z,1.80
2022-09-15T23:23:39.009Z,1.97
2022-09-15T23:26:10.363Z,1.83
2022-09-15T23:28:39.912Z,1.30
2022-09-15T23:31:08.993Z,1.30
2022-09-15T23:33:36.989Z,1.63
2022-09-15T23:36:06.922Z,1.80
2022-09-15T23:38:37.023Z,1.53
2022-09-15T23:41:05.375Z,1.87
2022-09-15T23:43:35.112Z,1.53
2022-09-15T23:46:07.406Z,2.13
2022-09-15T23:48:35.439Z,1.80
2022-09-15T23:51:04.174Z,1.80
2022-09-15T23:53:32.082Z,1.80
2022-09-15T23:55:59.998Z,1.77
2022-09-15T23:58:28.545Z,1.83
